createdAt,value
2022-10-04T00:01:51.496Z,8.23
2022-10-04T00:04:25.496Z,8.17
2022-10-04T00:06:58.949Z,8.14
2022-10-04T00:09:29.269Z,8.09
2022-10-04T00:11:57.921Z,8.06
2022-10-04T00:14:31.442Z,8.04
2022-10-04T00:17:08.507Z,8.01
2022-10-04T00:19:46.912Z,8.02
2022-10-04T00:22:23.690Z,8.02
2022-10-04T00:25:19.459Z,7.96
2022-10-04T00:28:29.066Z,7.90
2022-10-04T00:31:21.769Z,7.87
2022-10-04T00:33:52.894Z,7.80
2022-10-04T00:36:45.368Z,7.77
2022-10-04T00:39:25.264Z,7.76
2022-10-04T00:42:00.408Z,7.74
2022-10-04T00:44:34.419Z,7.73
2022-10-04T00:47:05.218Z,7.68
2022-10-04T00:49:41.580Z,7.65
2022-10-04T00:52:15.705Z,7.62
2022-10-04T00:54:50.179Z,7.61
2022-10-04T00:57:22.505Z,7.62
2022-10-04T00:59:53.192Z,7.63
2022-10-04T01:02:22.327Z,7.62
2022-10-04T01:04:57.842Z,7.61
2022-10-04T01:07:29.874Z,7.58
2022-10-04T01:10:00.877Z,7.59
2022-10-04T01:12:41.843Z,7.59
2022-10-04T01:15:15.905Z,7.54
2022-10-04T01:18:09.330Z,7.52
2022-10-04T01:20:41.452Z,7.47
2022-10-04T01:23:11.947Z,7.49
2022-10-04T01:25:50.588Z,7.44
2022-10-04T01:28:18.611Z,7.41
2022-10-04T01:30:46.685Z,7.37
2022-10-04T01:33:14.524Z,7.32
2022-10-04T01:35:42.240Z,7.32
2022-10-04T01:38:09.932Z,7.30
2022-10-04T01:40:46.812Z,7.31
2022-10-04T01:43:22.000Z,7.29
2022-10-04T01:45:54.746Z,7.28
2022-10-04T01:48:25.605Z,7.30
2022-10-04T01:50:58.644Z,7.27
2022-10-04T01:53:29.768Z,7.25
2022-10-04T01:56:06.901Z,7.21
2022-10-04T01:58:42.485Z,7.22
2022-10-04T02:01:15.862Z,7.20
2022-10-04T02:03:44.552Z,7.18
2022-10-04T02:06:14.937Z,7.15
2022-10-04T02:08:49.385Z,7.15
2022-10-04T02:11:21.801Z,7.12
2022-10-04T02:13:52.846Z,7.10
2022-10-04T02:16:22.222Z,7.09
2022-10-04T02:18:51.776Z,7.06
2022-10-04T02:21:20.736Z,7.06
2022-10-04T02:23:49.367Z,7.05
2022-10-04T02:26:17.002Z,7.01
2022-10-04T02:28:45.929Z,7.04
2022-10-04T02:31:31.340Z,7.02
2022-10-04T02:34:00.725Z,7.03
2022-10-04T02:36:30.355Z,7.01
2022-10-04T02:39:03.640Z,6.99
2022-10-04T02:41:35.659Z,6.94
2022-10-04T02:44:13.981Z,6.91
2022-10-04T02:46:47.301Z,6.89
2022-10-04T02:49:25.495Z,6.88
2022-10-04T02:52:01.208Z,6.87
2022-10-04T02:54:31.862Z,6.87
2022-10-04T02:57:00.696Z,6.86
2022-10-04T02:59:35.257Z,6.86
2022-10-04T03:02:03.457Z,6.82
2022-10-04T03:04:34.436Z,6.82
2022-10-04T03:07:05.939Z,6.80
2022-10-04T03:09:36.322Z,6.77
2022-10-04T03:12:05.252Z,6.78
2022-10-04T03:14:35.221Z,6.76
2022-10-04T03:17:04.860Z,6.79
2022-10-04T03:19:34.364Z,6.78
2022-10-04T03:22:05.547Z,6.77
2022-10-04T03:24:37.093Z,6.78
2022-10-04T03:27:07.715Z,6.75
2022-10-04T03:29:42.141Z,6.75
2022-10-04T03:32:13.915Z,6.75
2022-10-04T03:34:45.356Z,6.74
2022-10-04T03:37:17.436Z,6.72
2022-10-04T03:39:47.559Z,6.71
2022-10-04T03:42:17.471Z,6.70
2022-10-04T03:44:48.138Z,6.72
2022-10-04T03:47:20.375Z,6.71
2022-10-04T03:49:50.971Z,6.69
2022-10-04T03:52:23.910Z,6.66
2022-10-04T03:54:54.615Z,6.66
2022-10-04T03:57:22.690Z,6.63
2022-10-04T03:59:52.719Z,6.62
2022-10-04T04:02:35.120Z,6.62
2022-10-04T04:05:11.300Z,6.60
2022-10-04T04:07:43.149Z,6.61
2022-10-04T04:10:19.314Z,6.64
2022-10-04T04:12:53.441Z,6.64
2022-10-04T04:15:22.638Z,6.60
2022-10-04T04:17:53.362Z,6.59
2022-10-04T04:20:25.856Z,6.54
2022-10-04T04:23:02.005Z,6.52
2022-10-04T04:25:32.949Z,6.51
2022-10-04T04:28:12.834Z,6.50
2022-10-04T04:30:46.632Z,6.46
2022-10-04T04:33:22.628Z,6.44
2022-10-04T04:35:56.237Z,6.39
2022-10-04T04:38:25.629Z,6.38
2022-10-04T04:40:55.551Z,6.34
2022-10-04T04:43:27.360Z,6.34
2022-10-04T04:46:25.490Z,6.32
2022-10-04T04:48:49.603Z,6.33
2022-10-04T04:51:22.796Z,6.32
2022-10-04T04:53:51.893Z,6.30
2022-10-04T04:56:23.805Z,6.29
2022-10-04T04:58:53.735Z,6.28
2022-10-04T05:01:26.283Z,6.24
2022-10-04T05:04:05.043Z,6.21
2022-10-04T05:06:35.907Z,6.18
2022-10-04T05:09:04.214Z,6.15
2022-10-04T05:11:33.978Z,6.12
2022-10-04T05:14:05.770Z,6.12
2022-10-04T05:16:40.927Z,6.12
2022-10-04T05:19:16.468Z,6.13
2022-10-04T05:21:46.686Z,6.09
2022-10-04T05:24:21.473Z,6.11
2022-10-04T05:26:52.889Z,6.09
2022-10-04T05:29:22.844Z,6.10
2022-10-04T05:32:03.215Z,6.08
2022-10-04T05:34:37.035Z,6.08
2022-10-04T05:37:28.688Z,6.09
2022-10-04T05:40:06.554Z,6.11
2022-10-04T05:42:38.911Z,6.10
2022-10-04T05:45:17.237Z,6.12
2022-10-04T05:47:47.387Z,6.15
2022-10-04T05:50:18.429Z,6.14
2022-10-04T05:52:48.031Z,6.18
2022-10-04T05:55:19.133Z,6.24
2022-10-04T05:57:57.243Z,6.28
2022-10-04T06:00:34.541Z,6.30
2022-10-04T06:03:31.369Z,6.35
2022-10-04T06:06:03.284Z,6.39
2022-10-04T06:08:44.586Z,6.54
2022-10-04T06:11:33.915Z,6.66
2022-10-04T06:14:21.676Z,6.77
2022-10-04T06:17:07.227Z,6.90
2022-10-04T06:19:54.229Z,7.00
2022-10-04T06:22:23.137Z,7.14
2022-10-04T06:24:57.025Z,7.21
2022-10-04T06:27:33.239Z,7.26
2022-10-04T06:30:04.221Z,7.32
2022-10-04T06:33:11.444Z,7.37
2022-10-04T06:35:57.482Z,7.37
2022-10-04T06:38:48.217Z,7.41
2022-10-04T06:41:28.268Z,7.49
2022-10-04T06:44:08.787Z,7.53
2022-10-04T06:46:44.330Z,7.63
2022-10-04T06:49:34.350Z,7.73
2022-10-04T06:52:26.806Z,7.81
2022-10-04T06:55:18.877Z,7.89
2022-10-04T06:58:08.299Z,8.01
2022-10-04T07:00:42.262Z,8.15
2022-10-04T07:03:15.265Z,8.25
2022-10-04T07:05:47.110Z,8.36
2022-10-04T07:08:31.013Z,8.45
2022-10-04T07:11:04.045Z,8.59
2022-10-04T07:13:44.827Z,8.72
2022-10-04T07:16:29.455Z,8.81
2022-10-04T07:19:09.594Z,8.83
2022-10-04T07:21:45.373Z,8.87
2022-10-04T07:24:25.989Z,8.88
2022-10-04T07:26:55.927Z,8.92
2022-10-04T07:29:26.286Z,9.01
2022-10-04T07:32:06.490Z,9.06
2022-10-04T07:34:37.633Z,9.11
2022-10-04T07:37:12.549Z,9.06
2022-10-04T07:39:50.377Z,9.14
2022-10-04T07:42:26.627Z,9.13
2022-10-04T07:45:18.876Z,9.25
2022-10-04T07:47:46.962Z,9.38
2022-10-04T07:50:21.716Z,9.45
2022-10-04T07:52:56.926Z,9.62
2022-10-04T07:55:29.801Z,9.76
2022-10-04T07:58:14.021Z,9.90
2022-10-04T08:00:50.146Z,9.96
2022-10-04T08:03:31.893Z,10.06
2022-10-04T08:06:11.433Z,10.13
2022-10-04T08:08:58.082Z,10.22
2022-10-04T08:11:39.014Z,10.41
2022-10-04T08:14:23.175Z,10.52
2022-10-04T08:17:03.341Z,10.66
2022-10-04T08:19:43.387Z,10.77
2022-10-04T08:22:23.368Z,10.86
2022-10-04T08:25:02.396Z,11.02
2022-10-04T08:28:08.765Z,11.12
2022-10-04T08:30:51.670Z,11.18
2022-10-04T08:33:29.852Z,11.51
2022-10-04T08:36:13.593Z,11.74
2022-10-04T08:38:49.524Z,12.02
2022-10-04T08:41:51.115Z,12.19
2022-10-04T08:45:08.171Z,12.42
2022-10-04T08:48:25.108Z,12.60
2022-10-04T08:51:21.817Z,12.79
2022-10-04T08:54:35.674Z,13.18
2022-10-04T08:57:21.815Z,13.38
2022-10-04T09:00:10.384Z,13.36
2022-10-04T09:03:15.592Z,13.59
2022-10-04T09:05:59.759Z,13.81
2022-10-04T09:09:22.465Z,13.87
2022-10-04T09:12:15.929Z,13.95
2022-10-04T09:15:04.259Z,14.06
2022-10-04T09:17:46.378Z,13.97
2022-10-04T09:20:39.633Z,14.02
2022-10-04T09:23:23.283Z,14.13
2022-10-04T09:26:06.334Z,14.27
2022-10-04T09:29:12.225Z,14.32
2022-10-04T09:32:01.545Z,14.60
2022-10-04T09:34:38.781Z,14.69
2022-10-04T09:37:36.872Z,14.76
2022-10-04T09:40:49.584Z,14.78
2022-10-04T09:43:37.106Z,14.93
2022-10-04T09:46:19.193Z,15.02
2022-10-04T09:48:59.735Z,15.10
2022-10-04T09:52:08.839Z,15.14
2022-10-04T09:55:04.338Z,15.50
2022-10-04T09:58:01.891Z,15.64
2022-10-04T10:00:36.760Z,15.65
2022-10-04T10:03:34.401Z,15.67
2022-10-04T10:06:40.608Z,16.04
2022-10-04T10:09:19.425Z,16.20
2022-10-04T10:12:23.521Z,16.51
2022-10-04T10:15:17.676Z,16.95
2022-10-04T10:17:56.463Z,17.42
2022-10-04T10:20:41.632Z,17.71
2022-10-04T10:23:48.787Z,17.75
2022-10-04T10:26:42.021Z,17.64
2022-10-04T10:29:49.179Z,17.87
2022-10-04T10:32:36.422Z,18.06
2022-10-04T10:35:47.074Z,17.86
2022-10-04T10:38:31.098Z,17.78
2022-10-04T10:41:20.083Z,17.72
2022-10-04T10:44:09.831Z,17.87
2022-10-04T10:46:58.348Z,17.84
2022-10-04T10:49:54.073Z,17.70
2022-10-04T10:52:59.247Z,17.51
2022-10-04T10:55:34.519Z,17.64
2022-10-04T10:58:36.680Z,18.13
2022-10-04T11:01:26.630Z,18.45
2022-10-04T11:04:14.483Z,19.18
2022-10-04T11:07:18.365Z,19.86
2022-10-04T11:10:21.596Z,20.42
2022-10-04T11:13:08.778Z,20.52
2022-10-04T11:16:14.782Z,20.42
2022-10-04T11:19:23.423Z,20.49
2022-10-04T11:22:42.345Z,20.63
2022-10-04T11:25:36.790Z,21.08
2022-10-04T11:28:13.787Z,21.59
2022-10-04T11:31:12.842Z,22.02
2022-10-04T11:33:58.174Z,22.32
2022-10-04T11:36:40.077Z,22.56
2022-10-04T11:39:33.055Z,22.77
2022-10-04T11:42:13.584Z,22.97
2022-10-04T11:45:14.460Z,23.30
2022-10-04T11:47:51.952Z,23.83
2022-10-04T11:50:31.392Z,24.24
2022-10-04T11:53:47.974Z,24.43
2022-10-04T11:56:28.360Z,24.49
2022-10-04T11:59:08.490Z,24.91
2022-10-04T12:02:07.280Z,24.89
2022-10-04T12:05:19.169Z,24.83
2022-10-04T12:07:57.956Z,24.85
2022-10-04T12:10:29.911Z,25.17
2022-10-04T12:13:27.670Z,25.01
2022-10-04T12:16:13.510Z,24.85
2022-10-04T12:19:01.877Z,25.06
2022-10-04T12:21:42.142Z,25.62
2022-10-04T12:24:19.571Z,25.66
2022-10-04T12:27:18.746Z,25.33
2022-10-04T12:30:21.360Z,25.74
2022-10-04T12:33:03.256Z,25.95
2022-10-04T12:35:44.507Z,26.10
2022-10-04T12:38:25.377Z,26.81
2022-10-04T12:41:01.857Z,26.53
2022-10-04T12:43:38.364Z,26.41
2022-10-04T12:46:19.692Z,26.10
2022-10-04T12:49:00.662Z,26.57
2022-10-04T12:51:50.752Z,26.85
2022-10-04T12:54:31.933Z,27.18
2022-10-04T12:57:10.293Z,26.67
2022-10-04T12:59:49.349Z,26.54
2022-10-04T13:02:44.656Z,25.83
2022-10-04T13:05:18.124Z,26.70
2022-10-04T13:08:03.463Z,27.08
2022-10-04T13:10:55.929Z,26.95
2022-10-04T13:13:40.982Z,27.38
2022-10-04T13:19:18.409Z,27.50
2022-10-04T13:22:44.075Z,26.97
2022-10-04T13:25:29.317Z,28.15
2022-10-04T13:28:03.818Z,28.98
2022-10-04T13:30:43.881Z,29.23
2022-10-04T13:33:24.541Z,29.89
2022-10-04T13:35:59.333Z,30.02
2022-10-04T13:38:47.312Z,29.21
2022-10-04T13:41:31.936Z,30.47
2022-10-04T13:44:26.080Z,30.85
2022-10-04T13:47:14.572Z,31.38
2022-10-04T13:49:55.246Z,30.88
2022-10-04T13:53:06.586Z,31.33
2022-10-04T13:56:00.572Z,31.59
2022-10-04T13:58:42.812Z,30.85
2022-10-04T14:01:40.129Z,30.51
2022-10-04T14:04:26.013Z,31.56
2022-10-04T14:07:17.306Z,31.29
2022-10-04T14:10:02.032Z,32.11
2022-10-04T14:13:05.979Z,32.29
2022-10-04T14:16:06.095Z,32.95
2022-10-04T14:19:21.111Z,32.40
2022-10-04T14:22:29.924Z,32.65
2022-10-04T14:25:21.653Z,33.23
2022-10-04T14:28:17.940Z,32.72
2022-10-04T14:31:05.163Z,32.86
2022-10-04T14:33:54.635Z,33.32
2022-10-04T14:36:50.623Z,33.56
2022-10-04T14:39:35.810Z,34.22
2022-10-04T14:42:36.129Z,33.95
2022-10-04T14:45:21.131Z,34.51
2022-10-04T14:48:08.779Z,34.96
2022-10-04T14:50:57.628Z,34.85
2022-10-04T14:53:35.412Z,34.46
2022-10-04T14:56:32.716Z,32.93
2022-10-04T14:59:17.796Z,33.66
2022-10-04T15:02:08.044Z,31.93
2022-10-04T15:04:58.142Z,31.59
2022-10-04T15:07:33.571Z,30.01
2022-10-04T15:10:11.237Z,27.89
2022-10-04T15:13:10.051Z,27.23
2022-10-04T15:15:59.803Z,26.87
2022-10-04T15:18:45.080Z,27.44
2022-10-04T15:21:33.647Z,28.02
2022-10-04T15:24:24.045Z,28.30
2022-10-04T15:27:07.369Z,28.85
2022-10-04T15:29:46.092Z,29.77
2022-10-04T15:32:25.343Z,30.07
2022-10-04T15:35:05.949Z,30.39
2022-10-04T15:37:43.971Z,31.11
2022-10-04T15:40:25.120Z,31.25
2022-10-04T15:43:04.370Z,31.14
2022-10-04T15:45:50.448Z,30.97
2022-10-04T15:48:36.568Z,30.72
2022-10-04T15:51:12.725Z,30.69
2022-10-04T15:54:04.646Z,30.71
2022-10-04T15:56:44.577Z,30.84
2022-10-04T15:59:33.138Z,31.09
2022-10-04T16:02:22.136Z,31.35
2022-10-04T16:05:04.172Z,31.61
2022-10-04T16:07:42.575Z,31.46
2022-10-04T16:10:19.800Z,31.59
2022-10-04T16:13:28.811Z,30.85
2022-10-04T16:16:26.108Z,30.75
2022-10-04T16:19:05.618Z,30.20
2022-10-04T16:21:42.290Z,29.47
2022-10-04T16:24:46.700Z,27.87
2022-10-04T16:27:35.387Z,27.52
2022-10-04T16:30:26.906Z,26.65
2022-10-04T16:33:11.455Z,25.63
2022-10-04T16:35:46.327Z,24.66
2022-10-04T16:38:24.734Z,23.77
2022-10-04T16:41:14.683Z,23.46
2022-10-04T16:43:53.647Z,23.09
2022-10-04T16:46:30.675Z,22.35
2022-10-04T16:49:03.921Z,21.83
2022-10-04T16:51:43.649Z,21.40
2022-10-04T16:54:38.708Z,20.72
2022-10-04T16:57:19.607Z,20.36
2022-10-04T16:59:53.908Z,20.02
2022-10-04T17:02:41.251Z,19.87
2022-10-04T17:05:25.434Z,19.57
2022-10-04T17:08:11.790Z,19.26
2022-10-04T17:10:54.673Z,18.95
2022-10-04T17:13:26.513Z,18.58
2022-10-04T17:16:06.478Z,18.35
2022-10-04T17:18:45.614Z,18.07
2022-10-04T17:21:29.115Z,17.85
2022-10-04T17:24:21.642Z,17.62
2022-10-04T17:27:05.748Z,17.46
2022-10-04T17:29:48.878Z,17.30
2022-10-04T17:32:27.275Z,17.03
2022-10-04T17:35:08.995Z,16.77
2022-10-04T17:37:47.225Z,16.54
2022-10-04T17:40:29.121Z,16.39
2022-10-04T17:43:06.685Z,16.23
2022-10-04T17:45:53.296Z,16.06
2022-10-04T17:48:42.782Z,15.90
2022-10-04T17:51:34.459Z,15.77
2022-10-04T17:54:30.033Z,15.70
2022-10-04T17:57:16.024Z,15.58
2022-10-04T17:59:46.899Z,15.46
2022-10-04T18:02:21.090Z,15.28
2022-10-04T18:04:54.437Z,15.14
2022-10-04T18:07:25.862Z,15.07
2022-10-04T18:09:57.446Z,15.00
2022-10-04T18:12:29.437Z,14.95
2022-10-04T18:15:03.182Z,14.90
2022-10-04T18:17:35.709Z,14.74
2022-10-04T18:20:27.036Z,14.68
2022-10-04T18:23:01.194Z,14.59
2022-10-04T18:25:32.043Z,14.48
2022-10-04T18:28:12.371Z,14.45
2022-10-04T18:30:58.991Z,14.31
2022-10-04T18:33:45.028Z,14.24
2022-10-04T18:36:16.269Z,14.20
2022-10-04T18:38:46.179Z,14.16
2022-10-04T18:41:21.251Z,13.97
2022-10-04T18:43:53.636Z,13.75
2022-10-04T18:46:22.719Z,13.71
2022-10-04T18:48:55.135Z,13.66
2022-10-04T18:51:27.271Z,13.61
2022-10-04T18:54:16.093Z,13.54
2022-10-04T18:56:54.918Z,13.52
2022-10-04T18:59:51.078Z,13.49
2022-10-04T19:02:26.035Z,13.43
2022-10-04T19:05:02.707Z,13.38
2022-10-04T19:07:38.689Z,13.29
2022-10-04T19:10:18.845Z,13.25
2022-10-04T19:13:06.993Z,13.24
2022-10-04T19:15:44.007Z,13.14
2022-10-04T19:18:23.945Z,13.10
2022-10-04T19:20:59.316Z,13.09
2022-10-04T19:23:35.669Z,13.04
2022-10-04T19:26:31.108Z,13.00
2022-10-04T19:29:08.889Z,12.99
2022-10-04T19:31:47.222Z,13.01
2022-10-04T19:34:20.129Z,12.95
2022-10-04T19:36:54.454Z,12.92
2022-10-04T19:39:38.988Z,12.88
2022-10-04T19:42:13.431Z,12.84
2022-10-04T19:45:02.773Z,12.76
2022-10-04T19:47:41.563Z,12.73
2022-10-04T19:50:21.073Z,12.69
2022-10-04T19:52:53.496Z,12.64
2022-10-04T19:55:26.253Z,12.61
2022-10-04T19:58:01.455Z,12.60
2022-10-04T20:00:30.392Z,12.54
2022-10-04T20:02:57.957Z,12.49
2022-10-04T20:05:25.817Z,12.44
2022-10-04T20:07:57.448Z,12.41
2022-10-04T20:10:34.472Z,12.35
2022-10-04T20:13:16.664Z,12.32
2022-10-04T20:15:48.418Z,12.28
2022-10-04T20:19:05.031Z,12.26
2022-10-04T20:21:32.785Z,12.22
2022-10-04T20:24:01.494Z,12.19
2022-10-04T20:27:06.488Z,12.13
2022-10-04T20:30:04.005Z,12.07
2022-10-04T20:33:01.936Z,12.01
2022-10-04T20:36:08.791Z,11.95
2022-10-04T20:38:52.948Z,11.93
2022-10-04T20:42:17.572Z,11.88
2022-10-04T20:44:55.189Z,11.83
2022-10-04T20:47:32.778Z,11.80
2022-10-04T20:50:03.012Z,11.76
2022-10-04T20:52:33.085Z,11.74
2022-10-04T20:55:02.847Z,11.72
2022-10-04T20:57:31.041Z,11.71
2022-10-04T20:59:59.401Z,11.69
2022-10-04T21:02:28.483Z,11.66
2022-10-04T21:05:14.560Z,11.63
2022-10-04T21:07:42.101Z,11.63
2022-10-04T21:10:17.914Z,11.61
2022-10-04T21:12:45.691Z,11.59
2022-10-04T21:15:21.573Z,11.59
2022-10-04T21:18:03.781Z,11.58
2022-10-04T21:20:45.327Z,11.54
2022-10-04T21:23:20.996Z,11.50
2022-10-04T21:25:48.577Z,11.47
2022-10-04T21:28:35.787Z,11.45
2022-10-04T21:31:04.412Z,11.42
2022-10-04T21:33:33.027Z,11.35
2022-10-04T21:36:01.932Z,11.34
2022-10-04T21:38:29.801Z,11.29
2022-10-04T21:40:57.750Z,11.26
2022-10-04T21:43:26.132Z,11.21
2022-10-04T21:45:53.698Z,11.17
2022-10-04T21:48:23.097Z,11.15
2022-10-04T21:50:52.374Z,11.10
2022-10-04T21:53:21.991Z,11.06
2022-10-04T21:55:49.503Z,11.00
2022-10-04T21:58:17.027Z,10.95
2022-10-04T22:00:44.619Z,10.93
2022-10-04T22:03:12.234Z,10.89
2022-10-04T22:05:39.745Z,10.86
2022-10-04T22:08:07.287Z,10.80
2022-10-04T22:10:36.195Z,10.77
2022-10-04T22:13:03.815Z,10.76
2022-10-04T22:15:31.395Z,10.74
2022-10-04T22:17:58.916Z,10.73
2022-10-04T22:20:26.855Z,10.74
2022-10-04T22:22:55.518Z,10.71
2022-10-04T22:25:25.178Z,10.68
2022-10-04T22:27:54.711Z,10.65
2022-10-04T22:30:25.524Z,10.64
2022-10-04T22:32:56.032Z,10.63
2022-10-04T22:35:23.722Z,10.61
2022-10-04T22:37:51.704Z,10.61
2022-10-04T22:40:22.016Z,10.58
2022-10-04T22:42:56.483Z,10.59
2022-10-04T22:45:25.815Z,10.57
2022-10-04T22:47:54.351Z,10.50
2022-10-04T22:50:30.360Z,10.48
2022-10-04T22:52:58.468Z,10.47
2022-10-04T22:55:26.512Z,10.44
2022-10-04T22:57:56.019Z,10.41
2022-10-04T23:00:23.621Z,10.40
2022-10-04T23:02:51.209Z,10.38
2022-10-04T23:05:20.905Z,10.35
2022-10-04T23:07:49.639Z,10.34
2022-10-04T23:10:19.551Z,10.32
2022-10-04T23:12:48.947Z,10.32
2022-10-04T23:15:20.252Z,10.28
2022-10-04T23:17:54.205Z,10.24
2022-10-04T23:20:22.327Z,10.22
2022-10-04T23:22:51.396Z,10.16
2022-10-04T23:25:21.348Z,10.14
2022-10-04T23:27:49.186Z,10.12
2022-10-04T23:30:20.078Z,10.09
2022-10-04T23:32:50.072Z,10.05
2022-10-04T23:35:20.847Z,10.05
2022-10-04T23:37:49.172Z,10.04
2022-10-04T23:40:19.743Z,10.01
2022-10-04T23:42:49.699Z,10.02
2022-10-04T23:45:21.956Z,10.00
2022-10-04T23:47:51.942Z,10.00
2022-10-04T23:50:23.683Z,9.96
2022-10-04T23:52:53.005Z,9.96
2022-10-04T23:55:23.111Z,9.93
2022-10-04T23:57:51.549Z,9.92
